Boyds, Washington
Current Conditions -  °F | °C
As of 2:00 PM on Tuesday 21 Oct 2014 (Local Time) from CYCG Reporting Station
Rain Showers Rain Showers  
Wind Chill: 57°   Ceiling: 7500
Heat Index: 57°   Visibility: 15mi
Dew Point: 46°   Wind: 5mph
Humidity: 67%   Direction: 140°SE
Pressure: 29.84"   Gusts: NA
Location:  48.82°N, 118.18°W
Report Text: CYCG 212100Z 14004KT 15SM VCSH SCT050 BKN075 14/08 A2984 RMK SC3AC3 TCU EMBD SLP108 DENSITY ALT 1900FT
Loading
Personal Weather Stations






























Interactive Weather Map
Tropical Storm Tracking
New forecast layout! Learn more

10-Day Weather Forecast

Advertisements
Track Severe Weather on mobile